Time;durP1;ratioP1;P1;durP2;ratioP2;P2;SDS_P1;SDS_P2;PMS_P1;PMS_P2;Temp;Humidity;BMP_temperature;BMP_pressure;BME280_temperature;BME280_humidity;BME280_pressure;Samples;Min_cycle;Max_cycle;Signal;HPM_P1;HPM_P2
2021/05/07 00:01:57;;;;;;;26.38;4.93;;;;;;;;;;5049388;28;20040;-68
2021/05/07 00:04:25;;;;;;;35.47;5.95;;;;;;;;;;5048051;28;20112;-66
2021/05/07 00:06:53;;;;;;;28.45;5.28;;;;;;;;;;5032247;28;20036;-68
2021/05/07 00:09:21;;;;;;;20.77;3.97;;;;;;;;;;5046488;28;20100;-68
2021/05/07 00:11:48;;;;;;;24.23;4.18;;;;;;;;;;5040716;28;20021;-69
2021/05/07 00:14:15;;;;;;;30.08;5.60;;;;;;;;;;5039811;28;20102;-68
2021/05/07 00:16:42;;;;;;;27.58;5.07;;;;;;;;;;5035528;28;20041;-68
2021/05/07 00:19:09;;;;;;;20.25;3.83;;;;;;;;;;5044912;28;20135;-69
2021/05/07 00:21:38;;;;;;;22.48;3.55;;;;;;;;;;5052518;28;20032;-68
2021/05/07 00:24:08;;;;;;;24.85;4.85;;;;;;;;;;5052472;28;20400;-68
2021/05/07 00:26:36;;;;;;;24.15;3.97;;;;;;;;;;5052674;28;20028;-68
2021/05/07 00:29:03;;;;;;;25.45;4.40;;;;;;;;;;5051509;28;20029;-69
2021/05/07 00:31:30;;;;;;;26.38;4.70;;;;;;;;;;5052513;28;20063;-69
2021/05/07 00:33:57;;;;;;;23.98;4.03;;;;;;;;;;5052559;28;20075;-69
2021/05/07 00:36:24;;;;;;;25.15;3.97;;;;;;;;;;5052499;28;20025;-69
2021/05/07 00:38:51;;;;;;;24.27;4.80;;;;;;;;;;5050476;28;20049;-68
2021/05/07 00:41:18;;;;;;;24.83;4.32;;;;;;;;;;5038380;28;20033;-69
2021/05/07 00:43:46;;;;;;;26.38;3.67;;;;;;;;;;5030799;28;20022;-68
2021/05/07 00:46:13;;;;;;;20.50;3.67;;;;;;;;;;5032657;28;20033;-68
2021/05/07 00:48:41;;;;;;;22.13;3.50;;;;;;;;;;5041832;28;20021;-68
2021/05/07 00:51:10;;;;;;;27.85;5.15;;;;;;;;;;5052556;28;20040;-68
2021/05/07 00:53:38;;;;;;;26.02;4.70;;;;;;;;;;5040917;28;20067;-69
2021/05/07 00:56:05;;;;;;;33.13;5.88;;;;;;;;;;5051147;28;20037;-68
2021/05/07 00:58:32;;;;;;;28.25;4.60;;;;;;;;;;5046592;28;20037;-69
2021/05/07 01:00:59;;;;;;;22.38;3.95;;;;;;;;;;5039318;28;20036;-69
2021/05/07 01:03:26;;;;;;;27.05;4.60;;;;;;;;;;5048938;28;20493;-70
2021/05/07 01:05:53;;;;;;;20.08;3.75;;;;;;;;;;5043671;28;20028;-70
2021/05/07 01:08:21;;;;;;;21.48;5.03;;;;;;;;;;5038366;28;20098;-70
2021/05/07 01:10:48;;;;;;;28.05;5.95;;;;;;;;;;5051839;28;20024;-70
2021/05/07 01:13:15;;;;;;;18.90;3.65;;;;;;;;;;5042249;28;20025;-70
2021/05/07 01:15:43;;;;;;;18.25;3.33;;;;;;;;;;5044808;28;20539;-69
2021/05/07 01:18:11;;;;;;;25.40;4.03;;;;;;;;;;5047207;28;20024;-69
2021/05/07 01:20:38;;;;;;;25.15;4.50;;;;;;;;;;5041415;28;20381;-67
2021/05/07 01:23:06;;;;;;;20.85;4.20;;;;;;;;;;5042384;28;20029;-70
2021/05/07 01:25:37;;;;;;;24.10;4.88;;;;;;;;;;5035706;28;20025;-69
2021/05/07 01:28:09;;;;;;;28.55;5.93;;;;;;;;;;5042139;28;20523;-67
2021/05/07 01:30:37;;;;;;;27.05;4.53;;;;;;;;;;5038413;28;20104;-68
2021/05/07 01:33:05;;;;;;;19.98;4.57;;;;;;;;;;5037103;28;20033;-71
2021/05/07 01:35:33;;;;;;;24.35;4.57;;;;;;;;;;5041025;28;20034;-70
2021/05/07 01:38:02;;;;;;;21.40;4.03;;;;;;;;;;5040280;28;20423;-70
2021/05/07 01:40:33;;;;;;;21.10;4.18;;;;;;;;;;5043878;28;20029;-69
2021/05/07 01:43:00;;;;;;;24.65;5.53;;;;;;;;;;5034716;28;20095;-71
2021/05/07 01:45:29;;;;;;;26.65;4.78;;;;;;;;;;5044110;28;20030;-71
2021/05/07 01:47:57;;;;;;;25.38;4.30;;;;;;;;;;5037408;28;20021;-69
2021/05/07 01:50:28;;;;;;;25.98;4.75;;;;;;;;;;5047979;28;20051;-69
2021/05/07 01:52:55;;;;;;;21.15;4.13;;;;;;;;;;5036964;28;20047;-68
2021/05/07 01:55:27;;;;;;;24.55;4.97;;;;;;;;;;5043881;28;20063;-69
2021/05/07 01:57:54;;;;;;;22.17;3.92;;;;;;;;;;5042870;28;20735;-68
2021/05/07 02:00:24;;;;;;;19.92;4.10;;;;;;;;;;5045432;28;20170;-67
2021/05/07 02:02:51;;;;;;;22.58;4.47;;;;;;;;;;5040110;28;20083;-68
2021/05/07 02:05:19;;;;;;;22.10;4.22;;;;;;;;;;5044701;28;20038;-68
2021/05/07 02:07:46;;;;;;;33.58;5.88;;;;;;;;;;5041653;28;20029;-69
2021/05/07 02:10:15;;;;;;;27.80;4.72;;;;;;;;;;5040636;28;20022;-68
2021/05/07 02:12:42;;;;;;;23.70;4.53;;;;;;;;;;5035771;28;20013;-69
2021/05/07 02:15:11;;;;;;;24.92;2.97;;;;;;;;;;5046366;28;20052;-68
2021/05/07 02:17:38;;;;;;;22.63;3.50;;;;;;;;;;5046690;28;20032;-68
2021/05/07 02:20:05;;;;;;;12.82;2.00;;;;;;;;;;5041406;28;20030;-69
2021/05/07 02:22:33;;;;;;;16.27;3.13;;;;;;;;;;5035004;28;20040;-69
2021/05/07 02:25:00;;;;;;;17.58;3.42;;;;;;;;;;5047066;28;20025;-68
2021/05/07 02:27:27;;;;;;;17.02;3.08;;;;;;;;;;5038399;28;20527;-68
2021/05/07 02:29:54;;;;;;;16.35;2.40;;;;;;;;;;5040477;28;20129;-68
2021/05/07 02:32:22;;;;;;;19.70;2.45;;;;;;;;;;5044218;28;20028;-69
2021/05/07 02:34:49;;;;;;;14.73;3.03;;;;;;;;;;5042945;28;20041;-69
2021/05/07 02:37:16;;;;;;;14.82;3.10;;;;;;;;;;5038508;28;20044;-69
2021/05/07 02:39:43;;;;;;;12.27;2.42;;;;;;;;;;5038802;28;20382;-70
2021/05/07 02:42:10;;;;;;;19.70;3.30;;;;;;;;;;5034139;28;20458;-69
2021/05/07 02:44:38;;;;;;;18.42;2.80;;;;;;;;;;5049821;28;20021;-69
2021/05/07 02:47:05;;;;;;;13.18;2.45;;;;;;;;;;5045891;28;20099;-69
2021/05/07 02:49:32;;;;;;;18.67;3.63;;;;;;;;;;5047729;28;20017;-69
2021/05/07 02:52:01;;;;;;;17.45;3.40;;;;;;;;;;5038339;28;20033;-69
2021/05/07 02:54:28;;;;;;;18.88;2.80;;;;;;;;;;5065947;28;20102;-70
2021/05/07 02:56:55;;;;;;;17.17;2.97;;;;;;;;;;5041838;28;20048;-69
2021/05/07 02:59:23;;;;;;;18.67;3.13;;;;;;;;;;5051566;28;20428;-70
2021/05/07 03:01:51;;;;;;;19.42;3.05;;;;;;;;;;5051039;28;20056;-72
2021/05/07 03:04:19;;;;;;;24.00;3.85;;;;;;;;;;5042412;28;20064;-73
2021/05/07 03:06:46;;;;;;;19.13;3.05;;;;;;;;;;5042449;28;20025;-72
2021/05/07 03:09:13;;;;;;;25.20;4.43;;;;;;;;;;5040231;28;20025;-73
2021/05/07 03:11:41;;;;;;;25.30;3.92;;;;;;;;;;5046378;28;20485;-71
2021/05/07 03:14:08;;;;;;;26.60;4.07;;;;;;;;;;5044324;28;20037;-70
2021/05/07 03:16:35;;;;;;;23.25;4.18;;;;;;;;;;5035202;28;20437;-71
2021/05/07 03:19:05;;;;;;;18.48;4.07;;;;;;;;;;5043100;28;20091;-69
2021/05/07 03:21:33;;;;;;;20.60;3.53;;;;;;;;;;5045790;28;20018;-72
2021/05/07 03:24:00;;;;;;;30.17;4.28;;;;;;;;;;5052429;28;20045;-71
2021/05/07 03:26:27;;;;;;;19.50;4.10;;;;;;;;;;5053285;28;20057;-71
2021/05/07 03:28:54;;;;;;;26.75;5.97;;;;;;;;;;5042909;28;20067;-71
2021/05/07 03:31:22;;;;;;;23.55;4.07;;;;;;;;;;5034652;28;20482;-71
2021/05/07 03:33:49;;;;;;;31.20;6.15;;;;;;;;;;5051371;28;20166;-71
2021/05/07 03:36:17;;;;;;;29.55;4.63;;;;;;;;;;5053451;28;20551;-71
2021/05/07 03:38:44;;;;;;;23.17;3.92;;;;;;;;;;5051402;28;20032;-72
2021/05/07 03:41:11;;;;;;;38.35;6.03;;;;;;;;;;5041806;28;20108;-70
2021/05/07 03:43:38;;;;;;;35.60;6.40;;;;;;;;;;5039216;28;20029;-70
2021/05/07 03:46:05;;;;;;;28.67;5.80;;;;;;;;;;5053584;28;20036;-70
2021/05/07 03:48:32;;;;;;;26.10;4.72;;;;;;;;;;5045607;28;20022;-70
2021/05/07 03:51:00;;;;;;;26.95;4.43;;;;;;;;;;5033421;28;20113;-70
2021/05/07 03:53:27;;;;;;;27.35;6.47;;;;;;;;;;5038601;28;20052;-69
2021/05/07 03:55:57;;;;;;;28.42;5.03;;;;;;;;;;5033069;28;20048;-70
2021/05/07 03:58:24;;;;;;;27.85;4.95;;;;;;;;;;5041749;28;20033;-69
2021/05/07 04:00:51;;;;;;;31.65;6.68;;;;;;;;;;5051320;28;20058;-70
2021/05/07 04:03:18;;;;;;;25.30;4.75;;;;;;;;;;5052026;28;20490;-70
2021/05/07 04:05:49;;;;;;;29.02;3.90;;;;;;;;;;5038703;28;20045;-69
2021/05/07 04:08:39;;;;;;;24.17;3.78;;;;;;;;;;5041457;28;20021;-70
2021/05/07 04:11:19;;;;;;;22.65;4.85;;;;;;;;;;5045131;28;20029;-67
2021/05/07 04:13:46;;;;;;;32.63;5.50;;;;;;;;;;5059677;28;20064;-68
2021/05/07 04:16:14;;;;;;;29.83;5.25;;;;;;;;;;5037123;28;20396;-70
2021/05/07 04:18:41;;;;;;;29.52;6.40;;;;;;;;;;5038328;28;20022;-69
2021/05/07 04:21:08;;;;;;;22.52;4.28;;;;;;;;;;5031470;28;20060;-69
2021/05/07 04:23:35;;;;;;;27.30;5.00;;;;;;;;;;5037836;28;20028;-69
2021/05/07 04:26:02;;;;;;;29.08;4.93;;;;;;;;;;5035697;28;20450;-71
2021/05/07 04:28:30;;;;;;;27.80;5.35;;;;;;;;;;5040775;28;20053;-69
2021/05/07 04:30:57;;;;;;;19.33;4.35;;;;;;;;;;5049859;28;20086;-71
2021/05/07 04:33:24;;;;;;;23.20;5.03;;;;;;;;;;5039915;28;20053;-68
2021/05/07 04:35:53;;;;;;;21.02;4.93;;;;;;;;;;5050937;28;20048;-70
2021/05/07 04:38:20;;;;;;;20.38;3.67;;;;;;;;;;5042969;28;20053;-68
2021/05/07 04:40:47;;;;;;;25.92;4.45;;;;;;;;;;5035819;28;20501;-71
2021/05/07 04:43:14;;;;;;;30.65;4.25;;;;;;;;;;5044858;28;20021;-71
2021/05/07 04:45:42;;;;;;;25.17;4.90;;;;;;;;;;5035854;28;20037;-68
2021/05/07 04:48:12;;;;;;;29.35;5.03;;;;;;;;;;5044243;28;20067;-69
2021/05/07 04:50:40;;;;;;;23.70;4.75;;;;;;;;;;5041306;28;20473;-68
2021/05/07 04:53:07;;;;;;;25.27;4.10;;;;;;;;;;5042643;28;20025;-68
2021/05/07 04:55:34;;;;;;;23.63;4.43;;;;;;;;;;5038777;28;20498;-69
2021/05/07 04:58:01;;;;;;;24.83;4.72;;;;;;;;;;5041151;28;20489;-68
2021/05/07 05:00:29;;;;;;;20.10;4.45;;;;;;;;;;5042820;28;20053;-68
2021/05/07 05:02:56;;;;;;;26.05;4.55;;;;;;;;;;5037959;28;20026;-68
2021/05/07 05:05:23;;;;;;;16.98;3.97;;;;;;;;;;5037342;28;20441;-69
2021/05/07 05:07:56;;;;;;;19.83;4.25;;;;;;;;;;5033388;28;20028;-72
2021/05/07 05:10:23;;;;;;;21.55;3.63;;;;;;;;;;5050516;28;20037;-70
2021/05/07 05:12:50;;;;;;;20.85;3.95;;;;;;;;;;5052169;28;20082;-71
2021/05/07 05:15:19;;;;;;;24.45;3.97;;;;;;;;;;5051118;28;20029;-69
2021/05/07 05:17:47;;;;;;;25.98;4.20;;;;;;;;;;5051567;28;20025;-67
2021/05/07 05:20:14;;;;;;;22.52;4.05;;;;;;;;;;5049094;28;20026;-67
2021/05/07 05:22:41;;;;;;;22.45;4.57;;;;;;;;;;5038578;28;20025;-67
2021/05/07 05:25:09;;;;;;;19.55;3.50;;;;;;;;;;5050425;28;20028;-70
2021/05/07 05:27:36;;;;;;;28.95;4.97;;;;;;;;;;5044317;28;20492;-67
2021/05/07 05:30:05;;;;;;;22.73;5.43;;;;;;;;;;5053736;28;20017;-68
2021/05/07 05:32:32;;;;;;;24.95;4.28;;;;;;;;;;5055682;28;20040;-70
2021/05/07 05:34:59;;;;;;;24.83;4.93;;;;;;;;;;5054160;28;20045;-70
2021/05/07 05:37:26;;;;;;;22.77;4.05;;;;;;;;;;5054169;28;20150;-71
2021/05/07 05:39:53;;;;;;;22.60;3.90;;;;;;;;;;5049678;28;20025;-71
2021/05/07 05:42:21;;;;;;;29.15;4.88;;;;;;;;;;5055581;28;20025;-71
2021/05/07 05:44:48;;;;;;;22.33;4.35;;;;;;;;;;5054458;28;20108;-68
2021/05/07 05:47:15;;;;;;;27.48;4.53;;;;;;;;;;5052844;28;20040;-68
2021/05/07 05:49:42;;;;;;;28.10;4.53;;;;;;;;;;5055159;28;20083;-68
2021/05/07 05:52:09;;;;;;;25.05;4.75;;;;;;;;;;5041195;28;20029;-68
2021/05/07 05:54:36;;;;;;;21.48;3.83;;;;;;;;;;5037686;28;20052;-67
2021/05/07 05:57:03;;;;;;;18.95;3.95;;;;;;;;;;5035462;28;20036;-70
2021/05/07 05:59:30;;;;;;;36.13;5.28;;;;;;;;;;5051734;28;20036;-69
2021/05/07 06:01:58;;;;;;;21.67;3.78;;;;;;;;;;5047055;28;20029;-70
2021/05/07 06:04:25;;;;;;;24.08;4.55;;;;;;;;;;5049782;28;20033;-69
2021/05/07 06:06:52;;;;;;;22.48;3.55;;;;;;;;;;5042291;28;20549;-70
2021/05/07 06:09:19;;;;;;;21.08;3.88;;;;;;;;;;5037045;28;20358;-70
2021/05/07 06:11:46;;;;;;;23.13;3.97;;;;;;;;;;5041183;28;20112;-70
2021/05/07 06:14:13;;;;;;;29.27;4.70;;;;;;;;;;5051763;28;20029;-69
2021/05/07 06:16:43;;;;;;;24.77;3.67;;;;;;;;;;5034990;28;20108;-69
2021/05/07 06:19:10;;;;;;;29.60;4.18;;;;;;;;;;5048792;28;20036;-69
2021/05/07 06:21:37;;;;;;;19.05;3.78;;;;;;;;;;5052606;28;20064;-70
2021/05/07 06:24:05;;;;;;;21.90;4.03;;;;;;;;;;5053669;28;20075;-70
2021/05/07 06:26:32;;;;;;;22.38;4.18;;;;;;;;;;5053792;28;20029;-70
2021/05/07 06:28:59;;;;;;;25.10;5.22;;;;;;;;;;5042024;28;20520;-69
2021/05/07 06:31:28;;;;;;;14.10;4.07;;;;;;;;;;5042930;28;20102;-69
2021/05/07 06:33:55;;;;;;;28.17;5.72;;;;;;;;;;5058332;28;20094;-70
2021/05/07 06:36:22;;;;;;;23.75;3.88;;;;;;;;;;5049995;28;20128;-69
2021/05/07 06:38:49;;;;;;;19.45;3.90;;;;;;;;;;5043791;28;20037;-69
2021/05/07 06:41:18;;;;;;;30.13;4.35;;;;;;;;;;5038346;28;20030;-70
2021/05/07 06:43:45;;;;;;;22.63;3.95;;;;;;;;;;5039933;28;20026;-70
2021/05/07 06:46:12;;;;;;;21.77;4.43;;;;;;;;;;5035236;28;20021;-70
2021/05/07 06:48:39;;;;;;;19.50;4.00;;;;;;;;;;5051047;28;20155;-70
2021/05/07 06:51:06;;;;;;;21.17;3.65;;;;;;;;;;5041094;28;20037;-70
2021/05/07 06:53:33;;;;;;;20.42;3.72;;;;;;;;;;5038399;28;20394;-70
2021/05/07 06:56:00;;;;;;;22.25;3.78;;;;;;;;;;5044994;28;20090;-72
2021/05/07 06:58:28;;;;;;;17.77;2.92;;;;;;;;;;5052790;28;20060;-70
2021/05/07 07:00:55;;;;;;;20.92;3.97;;;;;;;;;;5050220;28;20053;-71
2021/05/07 07:03:22;;;;;;;22.70;4.72;;;;;;;;;;5057483;28;20029;-71
2021/05/07 07:05:49;;;;;;;20.05;3.38;;;;;;;;;;5034051;28;20022;-72
2021/05/07 07:08:16;;;;;;;14.68;4.07;;;;;;;;;;5039881;28;20059;-72
2021/05/07 07:10:43;;;;;;;16.48;3.63;;;;;;;;;;5053586;28;20406;-72
2021/05/07 07:13:10;;;;;;;16.80;3.38;;;;;;;;;;5042706;28;20034;-71
2021/05/07 07:15:37;;;;;;;19.17;3.60;;;;;;;;;;5048048;28;20028;-72
2021/05/07 07:18:04;;;;;;;23.75;3.40;;;;;;;;;;5050720;28;20474;-73
2021/05/07 07:20:33;;;;;;;27.88;4.82;;;;;;;;;;5037937;28;20028;-71
2021/05/07 07:23:00;;;;;;;18.58;3.83;;;;;;;;;;5036107;28;20099;-72
2021/05/07 07:25:28;;;;;;;18.50;3.50;;;;;;;;;;5041045;28;20036;-73
2021/05/07 07:27:55;;;;;;;18.73;3.72;;;;;;;;;;5037225;28;20478;-72
2021/05/07 07:30:22;;;;;;;20.25;3.28;;;;;;;;;;5046745;28;20179;-71
2021/05/07 07:32:49;;;;;;;19.98;3.40;;;;;;;;;;5046533;28;20410;-71
2021/05/07 07:35:18;;;;;;;19.50;5.15;;;;;;;;;;5036685;28;20045;-71
2021/05/07 07:37:45;;;;;;;14.15;4.28;;;;;;;;;;5033688;28;20025;-71
2021/05/07 07:40:13;;;;;;;19.05;3.15;;;;;;;;;;5047244;28;20089;-71
2021/05/07 07:42:40;;;;;;;22.88;4.32;;;;;;;;;;5064452;28;20033;-71
2021/05/07 07:45:08;;;;;;;22.52;4.18;;;;;;;;;;5036868;28;20017;-71
2021/05/07 07:47:36;;;;;;;21.80;4.72;;;;;;;;;;5035798;28;20383;-72
2021/05/07 07:50:05;;;;;;;19.33;4.18;;;;;;;;;;5033387;28;20034;-72
2021/05/07 07:52:32;;;;;;;23.92;4.90;;;;;;;;;;5031636;28;20091;-72
2021/05/07 07:55:01;;;;;;;30.13;6.80;;;;;;;;;;5050126;28;20021;-72
2021/05/07 07:57:28;;;;;;;22.88;6.32;;;;;;;;;;5050380;28;20109;-72
2021/05/07 07:59:55;;;;;;;24.83;4.07;;;;;;;;;;5039136;28;20048;-72
2021/05/07 08:02:25;;;;;;;18.95;4.22;;;;;;;;;;5045934;28;20084;-69
2021/05/07 08:04:52;;;;;;;17.83;4.88;;;;;;;;;;5041620;28;20017;-72
2021/05/07 08:07:19;;;;;;;18.48;4.05;;;;;;;;;;5047424;28;20025;-72
2021/05/07 08:09:47;;;;;;;18.63;3.53;;;;;;;;;;5042969;28;20481;-71
2021/05/07 08:12:14;;;;;;;21.30;3.88;;;;;;;;;;5048566;28;20021;-71
2021/05/07 08:14:41;;;;;;;16.58;3.65;;;;;;;;;;5035872;28;20022;-71
2021/05/07 08:17:09;;;;;;;19.38;4.57;;;;;;;;;;5038659;28;20494;-71
2021/05/07 08:19:37;;;;;;;19.08;5.25;;;;;;;;;;5041093;28;20060;-70
2021/05/07 08:22:04;;;;;;;18.23;4.03;;;;;;;;;;5050985;28;20032;-70
2021/05/07 08:24:31;;;;;;;14.35;3.33;;;;;;;;;;5050194;28;20086;-71
2021/05/07 08:26:59;;;;;;;21.70;3.70;;;;;;;;;;5040542;28;20358;-71
2021/05/07 08:29:27;;;;;;;17.05;3.47;;;;;;;;;;5034501;28;20064;-71
2021/05/07 08:31:54;;;;;;;11.85;3.70;;;;;;;;;;5043139;28;20043;-71
2021/05/07 08:34:21;;;;;;;16.15;3.75;;;;;;;;;;5048401;28;20042;-71
2021/05/07 08:36:49;;;;;;;15.35;3.20;;;;;;;;;;5040706;28;20087;-71
2021/05/07 08:39:16;;;;;;;16.25;3.58;;;;;;;;;;5047389;28;20048;-71
2021/05/07 08:41:44;;;;;;;18.48;3.10;;;;;;;;;;5051305;28;20393;-71
2021/05/07 08:44:11;;;;;;;15.93;2.53;;;;;;;;;;5051816;28;20139;-71
2021/05/07 08:46:40;;;;;;;15.88;3.47;;;;;;;;;;5052559;28;20055;-72
2021/05/07 08:49:12;;;;;;;18.23;3.78;;;;;;;;;;5052761;28;20029;-72
2021/05/07 08:51:39;;;;;;;23.80;3.67;;;;;;;;;;5051256;28;20547;-72
2021/05/07 08:54:08;;;;;;;18.95;4.22;;;;;;;;;;5050164;28;20049;-72
2021/05/07 08:56:36;;;;;;;14.02;2.80;;;;;;;;;;5052362;28;20492;-72
2021/05/07 08:59:04;;;;;;;21.50;3.90;;;;;;;;;;5052515;28;20496;-72
2021/05/07 09:01:40;;;;;;;11.27;2.70;;;;;;;;;;5051396;28;20409;-72
2021/05/07 09:04:11;;;;;;;18.20;3.70;;;;;;;;;;5047546;28;20074;-71
2021/05/07 09:06:50;;;;;;;17.08;3.70;;;;;;;;;;5053234;28;20028;-71
2021/05/07 09:09:29;;;;;;;18.73;3.17;;;;;;;;;;5055492;28;20029;-72
2021/05/07 09:11:57;;;;;;;13.93;3.45;;;;;;;;;;5056639;28;20017;-72
2021/05/07 09:14:25;;;;;;;17.60;4.45;;;;;;;;;;5052423;28;20021;-72
2021/05/07 09:16:58;;;;;;;19.83;4.20;;;;;;;;;;5055096;28;20512;-71
2021/05/07 09:19:26;;;;;;;20.15;4.38;;;;;;;;;;5055282;28;20108;-71
2021/05/07 09:21:54;;;;;;;17.50;3.88;;;;;;;;;;5055135;28;20541;-71
2021/05/07 09:24:30;;;;;;;21.33;3.88;;;;;;;;;;5043825;28;20139;-71
2021/05/07 09:26:57;;;;;;;18.23;4.72;;;;;;;;;;5036368;28;20028;-72
2021/05/07 09:29:25;;;;;;;18.25;4.53;;;;;;;;;;5049768;28;20025;-72
2021/05/07 09:31:53;;;;;;;14.77;3.20;;;;;;;;;;5035029;28;20038;-72
2021/05/07 09:34:20;;;;;;;17.08;4.53;;;;;;;;;;5050795;28;20524;-72
2021/05/07 09:36:48;;;;;;;21.23;4.72;;;;;;;;;;5056094;28;20033;-72
2021/05/07 09:39:16;;;;;;;21.20;4.28;;;;;;;;;;5056310;28;20029;-72
2021/05/07 09:41:47;;;;;;;20.85;5.18;;;;;;;;;;5056008;28;20021;-72
2021/05/07 09:44:21;;;;;;;17.08;4.47;;;;;;;;;;5053370;28;20021;-72
2021/05/07 09:46:49;;;;;;;19.58;6.07;;;;;;;;;;5055928;28;20036;-71
2021/05/07 09:49:29;;;;;;;22.08;6.47;;;;;;;;;;5053456;28;20040;-72
2021/05/07 09:51:57;;;;;;;19.85;5.10;;;;;;;;;;5050828;28;20059;-72
2021/05/07 09:54:25;;;;;;;15.65;5.03;;;;;;;;;;5053540;28;20037;-72
2021/05/07 09:56:54;;;;;;;17.35;5.00;;;;;;;;;;5055708;28;20473;-72
2021/05/07 09:59:22;;;;;;;20.77;4.18;;;;;;;;;;5053686;28;20375;-72
2021/05/07 10:01:49;;;;;;;18.08;4.05;;;;;;;;;;5035459;28;20029;-72
2021/05/07 10:04:17;;;;;;;19.15;5.13;;;;;;;;;;5048673;28;20029;-72
2021/05/07 10:06:44;;;;;;;20.40;3.58;;;;;;;;;;5055255;28;20523;-71
2021/05/07 10:09:12;;;;;;;17.02;3.75;;;;;;;;;;5055340;28;20033;-71
2021/05/07 10:11:43;;;;;;;17.92;3.92;;;;;;;;;;5055119;28;20423;-72
2021/05/07 10:14:15;;;;;;;18.50;4.35;;;;;;;;;;5052643;28;20044;-71
2021/05/07 10:16:42;;;;;;;20.55;4.30;;;;;;;;;;5054416;28;20113;-72
2021/05/07 10:19:13;;;;;;;14.30;3.88;;;;;;;;;;5054453;28;20025;-71
2021/05/07 10:21:41;;;;;;;16.70;5.03;;;;;;;;;;5055133;28;20497;-72
2021/05/07 10:24:12;;;;;;;18.10;3.95;;;;;;;;;;5047837;28;20075;-72
2021/05/07 10:26:41;;;;;;;16.77;4.85;;;;;;;;;;5035315;28;20032;-72
2021/05/07 10:29:19;;;;;;;17.25;6.70;;;;;;;;;;5038876;28;20032;-72
2021/05/07 10:31:48;;;;;;;22.90;8.50;;;;;;;;;;5035085;28;20032;-72
2021/05/07 10:34:15;;;;;;;20.55;7.80;;;;;;;;;;5047728;28;20413;-72
2021/05/07 10:36:42;;;;;;;21.58;7.03;;;;;;;;;;5054968;28;20067;-72
2021/05/07 10:39:22;;;;;;;22.60;7.28;;;;;;;;;;5055236;28;20104;-72
2021/05/07 10:41:50;;;;;;;13.60;4.20;;;;;;;;;;5053504;28;20033;-72
2021/05/07 10:44:18;;;;;;;22.50;5.50;;;;;;;;;;5053437;28;20035;-71
2021/05/07 10:46:46;;;;;;;20.42;5.80;;;;;;;;;;5054821;28;20098;-71
2021/05/07 10:49:13;;;;;;;15.32;3.90;;;;;;;;;;5053734;28;20111;-71
2021/05/07 10:51:41;;;;;;;16.20;4.55;;;;;;;;;;5054735;28;20109;-71
2021/05/07 10:54:09;;;;;;;15.30;4.50;;;;;;;;;;5050924;28;20039;-72
2021/05/07 10:56:38;;;;;;;19.88;4.72;;;;;;;;;;5054525;28;20397;-71
2021/05/07 10:59:16;;;;;;;22.17;5.90;;;;;;;;;;5053212;28;20025;-72
2021/05/07 11:01:44;;;;;;;18.05;5.43;;;;;;;;;;5054345;28;20021;-72
2021/05/07 11:04:15;;;;;;;21.60;5.88;;;;;;;;;;5053350;28;20423;-71
2021/05/07 11:06:47;;;;;;;21.25;5.63;;;;;;;;;;5046553;28;20021;-72
2021/05/07 11:09:14;;;;;;;21.45;4.50;;;;;;;;;;5047172;28;20037;-71
2021/05/07 11:11:41;;;;;;;19.85;5.32;;;;;;;;;;5052964;28;20032;-71
2021/05/07 11:14:13;;;;;;;18.02;5.15;;;;;;;;;;5053296;28;20017;-71
2021/05/07 11:16:41;;;;;;;22.75;6.07;;;;;;;;;;5054011;28;20029;-71
2021/05/07 11:19:09;;;;;;;16.08;5.47;;;;;;;;;;5052363;28;20025;-71
2021/05/07 11:21:36;;;;;;;21.58;5.85;;;;;;;;;;5054070;28;20027;-71
2021/05/07 11:24:13;;;;;;;25.02;6.63;;;;;;;;;;5052839;28;20108;-72
2021/05/07 11:26:40;;;;;;;20.02;5.43;;;;;;;;;;5053714;28;20032;-71
2021/05/07 11:29:07;;;;;;;24.25;5.93;;;;;;;;;;5054077;28;20031;-71
2021/05/07 11:31:34;;;;;;;17.88;5.45;;;;;;;;;;5054066;28;20021;-71
2021/05/07 11:34:02;;;;;;;21.65;5.30;;;;;;;;;;5043793;28;20050;-72
2021/05/07 11:36:29;;;;;;;16.05;4.47;;;;;;;;;;5032854;28;20386;-71
2021/05/07 11:38:56;;;;;;;21.70;5.60;;;;;;;;;;5044006;28;20033;-71
2021/05/07 11:41:24;;;;;;;23.17;5.13;;;;;;;;;;5053778;28;20028;-71
2021/05/07 11:43:52;;;;;;;24.38;7.25;;;;;;;;;;5046855;28;20025;-70
2021/05/07 11:46:19;;;;;;;18.98;4.90;;;;;;;;;;5038000;28;20025;-70
2021/05/07 11:48:48;;;;;;;19.17;5.53;;;;;;;;;;5037571;28;20075;-70
2021/05/07 11:51:15;;;;;;;16.70;4.50;;;;;;;;;;5052769;28;20075;-70
2021/05/07 11:53:43;;;;;;;19.42;4.63;;;;;;;;;;5042473;28;20022;-70
2021/05/07 11:56:21;;;;;;;25.48;5.90;;;;;;;;;;5042813;28;21261;-70
2021/05/07 11:58:50;;;;;;;19.63;5.72;;;;;;;;;;5033383;28;20580;-70
2021/05/07 12:01:19;;;;;;;22.50;5.90;;;;;;;;;;5045250;28;20052;-70
2021/05/07 12:03:47;;;;;;;17.63;5.47;;;;;;;;;;5047618;28;20021;-70
2021/05/07 12:06:15;;;;;;;20.92;5.68;;;;;;;;;;5043111;28;20025;-70
2021/05/07 12:08:42;;;;;;;24.10;6.32;;;;;;;;;;5040683;28;20025;-70
2021/05/07 12:11:12;;;;;;;19.30;5.22;;;;;;;;;;5058791;28;20573;-70
2021/05/07 12:13:40;;;;;;;20.73;5.50;;;;;;;;;;5044256;28;20389;-70
2021/05/07 12:16:08;;;;;;;17.63;4.60;;;;;;;;;;5050446;28;20087;-70
2021/05/07 12:18:38;;;;;;;11.52;4.47;;;;;;;;;;5048161;28;20033;-70
2021/05/07 12:21:07;;;;;;;17.15;4.82;;;;;;;;;;5041084;28;20033;-70
2021/05/07 12:23:42;;;;;;;15.38;4.03;;;;;;;;;;5045956;28;20322;-70
2021/05/07 12:26:09;;;;;;;20.38;5.57;;;;;;;;;;5036525;28;20029;-70
2021/05/07 12:28:38;;;;;;;21.80;5.70;;;;;;;;;;5036708;28;20116;-70
2021/05/07 12:31:06;;;;;;;15.35;4.13;;;;;;;;;;5040695;28;20355;-71
2021/05/07 12:33:35;;;;;;;16.23;4.20;;;;;;;;;;5047595;28;20128;-70
2021/05/07 12:36:03;;;;;;;12.65;4.20;;;;;;;;;;5050144;28;20064;-70
2021/05/07 12:38:38;;;;;;;16.55;3.67;;;;;;;;;;5035188;28;20029;-70
2021/05/07 12:41:10;;;;;;;20.17;3.95;;;;;;;;;;5039765;28;20024;-70
2021/05/07 12:43:41;;;;;;;12.48;4.07;;;;;;;;;;5045408;28;20032;-70
2021/05/07 12:46:09;;;;;;;18.30;5.03;;;;;;;;;;5052432;28;20351;-70
2021/05/07 12:48:36;;;;;;;17.42;4.10;;;;;;;;;;5052944;28;20581;-70
2021/05/07 12:51:05;;;;;;;17.50;5.82;;;;;;;;;;5051144;28;20033;-70
2021/05/07 12:53:32;;;;;;;19.10;4.70;;;;;;;;;;5042896;28;20086;-70
2021/05/07 12:56:02;;;;;;;19.35;4.97;;;;;;;;;;5037258;28;20042;-71
2021/05/07 12:58:31;;;;;;;16.95;4.72;;;;;;;;;;5035215;28;20025;-70
2021/05/07 13:00:58;;;;;;;17.60;4.65;;;;;;;;;;5042914;28;20515;-70
2021/05/07 13:03:25;;;;;;;19.75;5.13;;;;;;;;;;5042439;28;20033;-70
2021/05/07 13:05:53;;;;;;;17.52;5.15;;;;;;;;;;5040200;28;20030;-70
2021/05/07 13:08:20;;;;;;;14.70;4.88;;;;;;;;;;5051194;28;20031;-69
2021/05/07 13:10:49;;;;;;;19.25;5.28;;;;;;;;;;5037561;28;20021;-70
2021/05/07 13:13:17;;;;;;;17.63;4.38;;;;;;;;;;5034597;28;20021;-70
2021/05/07 13:15:44;;;;;;;13.23;3.80;;;;;;;;;;5045771;28;20033;-69
2021/05/07 13:18:11;;;;;;;17.35;4.47;;;;;;;;;;5050887;28;20071;-70
2021/05/07 13:20:39;;;;;;;15.50;3.80;;;;;;;;;;5042207;28;20040;-69
2021/05/07 13:23:06;;;;;;;19.88;4.10;;;;;;;;;;5041403;28;20892;-70
2021/05/07 13:25:34;;;;;;;17.80;4.30;;;;;;;;;;5051499;28;20448;-70
2021/05/07 13:28:01;;;;;;;17.33;4.78;;;;;;;;;;5040539;28;20017;-70
2021/05/07 13:30:28;;;;;;;12.35;3.97;;;;;;;;;;5040878;28;20090;-69
2021/05/07 13:32:56;;;;;;;16.52;5.63;;;;;;;;;;5038981;28;21281;-69
2021/05/07 13:35:25;;;;;;;17.83;4.70;;;;;;;;;;5043512;28;20030;-70
2021/05/07 13:37:52;;;;;;;13.65;4.47;;;;;;;;;;5036741;28;20116;-70
2021/05/07 13:40:21;;;;;;;15.85;3.55;;;;;;;;;;5050839;28;20074;-69
2021/05/07 13:43:08;;;;;;;14.38;3.90;;;;;;;;;;5047116;28;20428;-70
2021/05/07 13:45:36;;;;;;;14.63;4.00;;;;;;;;;;5035156;28;20527;-69
2021/05/07 13:48:04;;;;;;;15.75;5.13;;;;;;;;;;5042864;28;20024;-70
2021/05/07 13:50:31;;;;;;;14.43;4.10;;;;;;;;;;5051555;28;20079;-70
2021/05/07 13:52:58;;;;;;;13.70;4.40;;;;;;;;;;5038811;28;20591;-70
2021/05/07 13:55:25;;;;;;;17.55;4.30;;;;;;;;;;5048416;28;20378;-70
2021/05/07 13:57:52;;;;;;;24.73;4.55;;;;;;;;;;5047102;28;20021;-70
2021/05/07 14:00:19;;;;;;;15.48;3.72;;;;;;;;;;5051542;28;20028;-70
2021/05/07 14:02:46;;;;;;;17.60;5.68;;;;;;;;;;5036800;28;20037;-70
2021/05/07 14:05:14;;;;;;;15.98;4.13;;;;;;;;;;5045821;28;20544;-70
2021/05/07 14:07:41;;;;;;;17.25;4.75;;;;;;;;;;5050352;28;20034;-70
2021/05/07 14:10:09;;;;;;;13.57;4.40;;;;;;;;;;5050375;28;20397;-70
2021/05/07 14:12:36;;;;;;;19.05;4.57;;;;;;;;;;5051255;28;20033;-69
2021/05/07 14:15:03;;;;;;;14.32;4.20;;;;;;;;;;5054704;28;20023;-70
2021/05/07 14:17:31;;;;;;;20.02;4.55;;;;;;;;;;5039117;28;20421;-70
2021/05/07 14:19:58;;;;;;;15.20;5.10;;;;;;;;;;5042830;28;20036;-70
2021/05/07 14:22:25;;;;;;;19.35;5.25;;;;;;;;;;5037433;28;20022;-70
2021/05/07 14:24:52;;;;;;;20.20;5.80;;;;;;;;;;5040984;28;20024;-70
2021/05/07 14:27:19;;;;;;;15.85;5.13;;;;;;;;;;5049982;28;20029;-70
2021/05/07 14:29:46;;;;;;;14.65;4.88;;;;;;;;;;5039649;28;20025;-70
2021/05/07 14:32:13;;;;;;;13.05;4.65;;;;;;;;;;5038090;28;20025;-70
2021/05/07 14:34:40;;;;;;;17.70;5.05;;;;;;;;;;5041932;28;20048;-70
2021/05/07 14:37:08;;;;;;;18.00;5.20;;;;;;;;;;5043675;28;20025;-70